Time;durP1;ratioP1;P1;durP2;ratioP2;P2;SDS_P1;SDS_P2;PMS_P1;PMS_P2;Temp;Humidity;BMP_temperature;BMP_pressure;BME280_temperature;BME280_humidity;BME280_pressure;Samples;Min_cycle;Max_cycle;Signal;HPM_P1;HPM_P2
2022/12/01 00:02:51;;;;;;;4.25;2.02;;;;;;;2.01;59.04;102322.00;1858833;76;22188;-58
2022/12/01 00:17:53;;;;;;;4.03;1.90;;;;;;;1.98;58.93;102332.96;1696581;83;21244;-57
2022/12/01 00:21:14;;;;;;;4.40;2.10;;;;;;;1.96;58.78;102333.96;1734947;82;21399;-57
2022/12/01 00:38:53;;;;;;;4.50;2.22;;;;;;;1.85;58.68;102333.14;1737554;81;21215;-57
2022/12/01 00:43:01;;;;;;;6.80;2.30;;;;;;;1.89;58.66;102320.38;1771835;81;21317;-58
2022/12/01 00:46:33;;;;;;;4.08;2.05;;;;;;;1.91;58.62;102323.39;1771050;79;21235;-57
2022/12/01 00:50:17;;;;;;;4.43;2.30;;;;;;;1.93;58.51;102321.96;1686355;83;21259;-60
2022/12/01 00:54:02;;;;;;;4.40;2.08;;;;;;;1.94;58.39;102316.95;1802104;77;22361;-57
2022/12/01 00:57:52;;;;;;;5.25;2.52;;;;;;;1.89;58.40;102319.02;1702156;80;21493;-57
2022/12/01 01:01:22;;;;;;;6.55;2.37;;;;;;;1.88;58.23;102318.60;1861332;76;28233;-57
2022/12/01 01:05:01;;;;;;;4.78;2.33;;;;;;;1.87;58.04;102318.21;1766479;81;21181;-57
2022/12/01 01:08:57;;;;;;;3.87;2.17;;;;;;;1.85;57.91;102321.45;1805246;79;21726;-59
2022/12/01 01:13:30;;;;;;;4.30;2.52;;;;;;;1.80;57.98;102318.98;1793196;79;21197;-59
2022/12/01 01:17:05;;;;;;;5.12;2.25;;;;;;;1.73;57.90;102314.80;1729089;82;21256;-57
2022/12/01 01:21:15;;;;;;;4.85;2.12;;;;;;;1.71;57.92;102311.78;1850218;75;22197;-56
2022/12/01 01:25:11;;;;;;;3.77;2.08;;;;;;;1.70;57.93;102314.09;1855460;76;22257;-57
2022/12/01 01:28:49;;;;;;;5.10;2.50;;;;;;;1.65;57.95;102313.44;1791868;78;21393;-58
2022/12/01 01:32:39;;;;;;;5.53;2.77;;;;;;;1.71;57.94;102310.44;1838965;75;22199;-57
2022/12/01 01:36:42;;;;;;;5.25;2.47;;;;;;;1.65;57.92;102304.84;1744878;79;21401;-60
2022/12/01 01:44:05;;;;;;;5.37;2.47;;;;;;;1.60;57.76;102298.81;1793383;77;21606;-59
2022/12/01 01:47:19;;;;;;;6.35;2.52;;;;;;;1.58;57.77;102304.74;1808440;77;21309;-59
2022/12/01 01:50:51;;;;;;;5.83;2.80;;;;;;;1.51;57.57;102299.22;1805584;78;21182;-60
2022/12/01 02:13:18;;;;;;;4.87;2.60;;;;;;;1.38;57.54;102292.17;1708701;80;21374;-57
2022/12/01 02:16:45;;;;;;;7.03;2.72;;;;;;;1.40;57.52;102286.23;1711330;79;21705;-57
2022/12/01 02:29:50;;;;;;;10.08;2.30;;;;;;;1.33;57.30;102302.29;1800842;77;21424;-58
2022/12/01 02:32:47;;;;;;;4.42;2.22;;;;;;;1.32;57.25;102291.57;1789778;76;21286;-59
2022/12/01 02:36:46;;;;;;;4.20;2.27;;;;;;;1.34;57.20;102292.39;1850597;74;22259;-59
2022/12/01 02:40:48;;;;;;;4.05;2.00;;;;;;;1.25;57.12;102296.37;1799370;77;21147;-59
2022/12/01 02:44:40;;;;;;;6.20;2.50;;;;;;;1.31;57.13;102289.84;1811261;76;22345;-59
2022/12/01 02:48:41;;;;;;;4.75;2.45;;;;;;;1.25;57.12;102296.86;1716953;81;21200;-57
2022/12/01 02:52:01;;;;;;;4.87;2.37;;;;;;;1.27;57.13;102297.65;1719367;82;21465;-57
2022/12/01 02:56:28;;;;;;;5.08;2.47;;;;;;;1.27;57.12;102295.84;1718540;82;21731;-57
2022/12/01 02:59:36;;;;;;;5.00;2.10;;;;;;;1.27;57.01;102296.30;1716379;82;21274;-58
2022/12/01 03:03:43;;;;;;;6.55;2.83;;;;;;;1.26;56.89;102287.35;1852367;76;28314;-58
2022/12/01 03:07:39;;;;;;;;;;;;;;;;;;;;;
2022/12/01 03:21:39;;;;;;;6.35;3.60;;;;;;;1.20;56.74;102279.55;1784722;78;22257;-57
2022/12/01 03:25:16;;;;;;;3.95;2.27;;;;;;;1.14;56.76;102269.51;1695225;81;21236;-56
2022/12/01 03:29:51;;;;;;;5.47;2.70;;;;;;;1.13;56.75;102267.27;1699362;81;21574;-58
2022/12/01 03:33:34;;;;;;;5.15;2.72;;;;;;;1.13;56.71;102275.37;1718802;81;21223;-58
2022/12/01 03:37:16;;;;;;;6.53;2.52;;;;;;;1.11;56.65;102272.35;1699167;80;21196;-58
2022/12/01 03:40:36;;;;;;;8.28;3.42;;;;;;;1.12;56.65;102283.06;1686991;81;21258;-58
2022/12/01 03:44:32;;;;;;;6.33;2.87;;;;;;;1.05;56.45;102284.27;1640923;82;21479;-59
2022/12/01 03:48:01;;;;;;;4.30;2.60;;;;;;;1.00;56.48;102288.99;1688987;81;22447;-59
2022/12/01 03:52:07;;;;;;;4.33;2.40;;;;;;;1.10;56.56;102276.86;1872126;76;22712;-60
2022/12/01 03:55:36;;;;;;;6.25;2.85;;;;;;;1.12;56.53;102284.41;1880781;76;23041;-59
2022/12/01 04:09:34;;;;;;;4.15;2.12;;;;;;;1.01;56.29;102293.92;1805296;74;22338;-56
2022/12/01 04:17:33;;;;;;;4.75;2.65;;;;;;;0.91;56.34;102298.84;1717561;81;21241;-59
2022/12/01 04:36:06;;;;;;;6.03;3.35;;;;;;;0.98;56.24;102289.52;1831503;78;22246;-55
2022/12/01 04:44:19;;;;;;;8.45;3.62;;;;;;;0.90;56.17;102282.74;1755857;79;21399;-55
2022/12/01 05:02:19;;;;;;;17.02;7.47;;;;;;;0.94;55.97;102285.69;1817980;75;22266;-59
2022/12/01 05:09:09;;;;;;;8.13;3.50;;;;;;;0.83;55.86;102294.27;1735797;81;21181;-58
2022/12/01 05:12:57;;;;;;;8.18;2.70;;;;;;;0.78;55.85;102296.28;1763049;80;21247;-55
2022/12/01 05:17:14;;;;;;;5.33;2.52;;;;;;;0.75;55.80;102299.58;1769575;80;21197;-59
2022/12/01 05:34:47;;;;;;;5.85;3.35;;;;;;;0.83;55.70;102287.53;1863228;76;22543;-59
2022/12/01 05:38:36;;;;;;;4.15;2.50;;;;;;;0.81;55.72;102300.19;1878249;76;22237;-59
2022/12/01 05:42:03;;;;;;;7.62;3.15;;;;;;;0.74;55.71;102298.72;1810919;78;21155;-59
2022/12/01 05:46:05;;;;;;;7.12;2.83;;;;;;;0.76;55.69;102295.95;1795909;78;21164;-59
2022/12/01 06:04:02;;;;;;;9.70;3.20;;;;;;;0.97;55.66;102321.48;1754943;76;21401;31
2022/12/01 06:07:24;;;;;;;7.40;2.72;;;;;;;0.98;55.56;102321.02;1648105;86;21311;-55
2022/12/01 06:10:52;;;;;;;8.23;2.72;;;;;;;0.97;55.44;102327.34;1664473;84;21224;-59
2022/12/01 06:21:43;;;;;;;5.58;2.70;;;;;;;1.12;55.40;102322.63;1850896;76;21358;-60
2022/12/01 06:25:26;;;;;;;9.10;2.70;;;;;;;1.13;55.22;102317.63;1796635;77;21227;31
2022/12/01 06:28:41;;;;;;;5.80;2.27;;;;;;;1.09;55.14;102326.81;1684181;83;21801;-59
2022/12/01 06:32:22;;;;;;;6.87;2.85;;;;;;;1.09;55.17;102320.97;1732619;81;21784;-55
2022/12/01 06:35:49;;;;;;;5.12;2.65;;;;;;;1.14;55.24;102318.91;1711636;81;22023;-55
2022/12/01 06:39:03;;;;;;;7.65;2.90;;;;;;;1.23;55.29;102314.94;1715905;82;22213;-55
2022/12/01 07:09:59;;;;;;;4.25;2.35;;;;;;;1.48;54.80;102305.64;1744280;78;21254;-59
2022/12/01 07:31:53;;;;;;;9.78;3.10;;;;;;;1.70;54.43;102293.35;1753503;81;21316;-54
2022/12/01 07:40:38;;;;;;;7.00;2.50;;;;;;;1.83;54.31;102296.34;1770726;79;21263;-55
2022/12/01 07:43:49;;;;;;;6.85;2.60;;;;;;;1.90;54.27;102289.25;1807413;77;21199;-55
2022/12/01 07:55:20;;;;;;;6.00;2.05;;;;;;;2.02;54.05;102297.20;1767565;79;22037;-60
2022/12/01 07:58:44;;;;;;;5.80;2.02;;;;;;;2.14;54.09;102306.08;1778079;77;21874;-60
2022/12/01 08:24:36;;;;;;;5.30;1.92;;;;;;;2.41;53.66;102283.08;1810945;77;23259;-59
2022/12/01 08:28:07;;;;;;;3.98;2.25;;;;;;;2.40;53.67;102289.42;1760632;80;21699;-61
2022/12/01 08:31:43;;;;;;;4.17;2.10;;;;;;;2.47;53.61;102272.84;1760356;81;21181;-60
2022/12/01 08:37:53;;;;;;;3.40;2.08;;;;;;;2.50;53.40;102277.20;1682927;79;21264;-60
2022/12/01 08:41:39;;;;;;;5.87;2.20;;;;;;;2.51;53.36;102273.06;1762895;81;22001;-60
2022/12/01 08:45:07;;;;;;;6.58;2.40;;;;;;;2.52;53.33;102274.80;1747952;79;21219;-60
2022/12/01 08:48:35;;;;;;;7.75;2.40;;;;;;;2.66;53.51;102276.81;1754361;80;21353;-60
2022/12/01 08:56:10;;;;;;;7.90;4.90;;;;;;;2.89;53.31;102273.30;1647462;83;21594;-56
2022/12/01 09:00:04;;;;;;;7.22;2.92;;;;;;;3.03;53.33;102264.44;1653526;84;21242;-56
2022/12/01 09:03:38;;;;;;;4.83;2.40;;;;;;;3.14;53.33;102254.41;1710314;79;21179;-56
2022/12/01 09:07:15;;;;;;;7.97;2.60;;;;;;;3.33;53.25;102247.89;1843948;75;22659;-56
2022/12/01 09:10:53;;;;;;;8.40;2.40;;;;;;;3.33;53.16;102258.72;1781125;79;21368;-56
2022/12/01 09:18:47;;;;;;;7.80;2.02;;;;;;;3.44;52.91;102250.02;1714664;80;21164;-60
2022/12/01 09:22:13;;;;;;;4.40;2.10;;;;;;;3.51;52.94;102245.53;1718927;80;21556;-58
2022/12/01 09:30:20;;;;;;;7.28;2.50;;;;;;;3.67;52.73;102239.66;1805810;76;22318;-59
2022/12/01 09:33:38;;;;;;;7.37;2.70;;;;;;;3.61;52.67;102240.47;1789275;79;21221;-60
2022/12/01 09:37:00;;;;;;;5.25;2.77;;;;;;;3.67;52.68;102241.47;1712976;81;21996;-56
2022/12/01 09:40:15;;;;;;;7.22;2.95;;;;;;;3.71;52.64;102238.50;1691167;80;21221;-60
2022/12/01 09:43:39;;;;;;;7.92;2.92;;;;;;;3.78;52.56;102227.73;1652014;83;21846;-56
2022/12/01 09:47:21;;;;;;;4.27;2.20;;;;;;;3.84;52.55;102231.43;1665685;85;21255;-56
2022/12/01 09:51:02;;;;;;;5.40;2.30;;;;;;;3.83;52.34;102222.92;1683031;85;21544;-58
2022/12/01 09:54:20;;;;;;;4.70;1.95;;;;;;;3.95;52.44;102219.50;1835662;76;22299;-56
2022/12/01 09:57:45;;;;;;;6.30;2.10;;;;;;;3.97;52.42;102222.99;1762124;79;21792;-58
2022/12/01 10:01:14;;;;;;;9.40;3.65;;;;;;;3.96;52.29;102221.27;1745106;81;21921;-58
2022/12/01 10:04:46;;;;;;;4.62;2.55;;;;;;;4.02;52.23;102220.02;1749663;81;21201;-57
2022/12/01 10:08:13;;;;;;;17.20;3.12;;;;;;;4.07;52.24;102221.98;1751901;81;21348;-56
2022/12/01 10:11:39;;;;;;;;;;;;;;;4.11;52.18;102218.11;1755757;80;21205;-57
2022/12/01 10:15:46;;;;;;;7.33;2.10;;;;;;;4.16;52.16;102210.12;1750645;80;20474;-57
2022/12/01 10:19:57;;;;;;;9.10;2.33;;;;;;;4.19;52.12;102208.58;1765691;79;21906;-57
2022/12/01 10:23:50;;;;;;;8.45;2.60;;;;;;;4.30;52.16;102216.06;1752361;80;21579;-57
2022/12/01 10:27:38;;;;;;;5.55;2.75;;;;;;;4.45;52.15;102204.31;1747967;80;21382;-56
2022/12/01 10:31:06;;;;;;;7.28;2.50;;;;;;;4.54;52.08;102211.88;1747847;80;21445;-58
2022/12/01 10:34:31;;;;;;;5.90;3.10;;;;;;;4.59;51.96;102208.42;1734784;81;21541;-57
2022/12/01 10:37:52;;;;;;;;;;;;;;;4.62;51.82;102201.45;1764217;81;21973;-57
2022/12/01 10:41:29;;;;;;;6.95;2.80;;;;;;;4.65;51.75;102201.25;1750779;81;20233;-56
2022/12/01 10:44:47;;;;;;;8.23;3.80;;;;;;;4.66;51.71;102198.95;1761738;81;21373;-57
2022/12/01 10:48:27;;;;;;;7.03;2.45;;;;;;;4.70;51.65;102194.19;1768640;80;21166;-57
2022/12/01 10:52:05;;;;;;;5.83;2.50;;;;;;;4.75;51.60;102193.42;1773104;80;21743;-58
2022/12/01 10:55:52;;;;;;;6.90;2.40;;;;;;;4.75;51.47;102190.23;1770088;81;21272;-57
2022/12/01 10:59:45;;;;;;;6.37;2.62;;;;;;;4.76;51.37;102181.63;1733329;82;21751;-56
2022/12/01 11:03:48;;;;;;;5.30;2.55;;;;;;;4.79;51.37;102176.01;1873806;76;22350;-59
2022/12/01 11:07:05;;;;;;;8.25;3.15;;;;;;;4.76;51.33;102182.98;1695961;83;22165;-57
2022/12/01 11:11:28;;;;;;;10.30;2.90;;;;;;;4.84;51.36;102188.30;1814439;78;21236;-60
2022/12/01 11:15:00;;;;;;;6.08;2.92;;;;;;;5.00;51.32;102185.50;1846556;76;22754;-60
2022/12/01 11:18:42;;;;;;;5.45;1.92;;;;;;;4.99;51.28;102179.22;1802515;79;21685;-59
2022/12/01 11:22:14;;;;;;;4.20;1.65;;;;;;;5.00;51.12;102173.28;1787416;79;21246;-58
2022/12/01 11:25:36;;;;;;;7.03;2.02;;;;;;;4.90;50.92;102174.85;1804425;79;21228;-59
2022/12/01 11:29:27;;;;;;;7.80;2.47;;;;;;;4.82;50.89;102178.02;1807374;78;21220;-60
2022/12/01 11:33:05;;;;;;;8.50;2.37;;;;;;;4.89;50.95;102180.75;1782441;79;21302;-61
2022/12/01 11:36:47;;;;;;;7.55;2.20;;;;;;;4.98;50.92;102175.25;1788963;79;22019;-59
2022/12/01 11:40:53;;;;;;;4.40;1.82;;;;;;;4.96;50.75;102175.34;1804679;79;21350;-58
2022/12/01 11:44:26;;;;;;;6.75;2.35;;;;;;;4.84;50.53;102166.59;1784957;79;21224;-57
2022/12/01 11:48:22;;;;;;;7.67;3.67;;;;;;;4.78;50.56;102164.75;1719934;82;21245;-61
2022/12/01 11:51:43;;;;;;;8.03;3.98;;;;;;;4.80;50.60;102164.17;1803947;79;21488;-59
2022/12/01 11:55:25;;;;;;;7.42;2.83;;;;;;;4.81;50.55;102157.77;1802787;79;21887;-59
2022/12/01 11:59:32;;;;;;;7.50;3.15;;;;;;;4.80;50.52;102156.92;1782091;77;21651;31
2022/12/01 12:11:26;;;;;;;7.85;2.45;;;;;;;4.66;50.28;102154.67;1700209;83;21162;-61
2022/12/01 12:15:25;;;;;;;7.25;3.00;;;;;;;4.60;50.16;102146.41;1702605;77;21215;-60
2022/12/01 12:18:59;;;;;;;8.08;3.80;;;;;;;4.55;50.14;102159.41;1698247;83;21614;-60
2022/12/01 12:26:16;;;;;;;8.33;2.52;;;;;;;4.39;49.85;102156.73;1705633;83;21960;-60
2022/12/01 12:44:03;;;;;;;4.42;1.95;;;;;;;4.05;49.75;102157.51;1775944;78;23098;-59
2022/12/01 12:48:24;;;;;;;13.05;2.25;;;;;;;4.01;49.77;102165.44;1761893;80;21288;-59
2022/12/01 12:55:48;;;;;;;5.40;2.47;;;;;;;3.93;49.63;102164.52;1761575;79;20287;-60
2022/12/01 12:59:27;;;;;;;8.35;2.72;;;;;;;3.91;49.69;102165.11;1726539;79;21225;-60
2022/12/01 13:08:11;;;;;;;8.65;2.42;;;;;;;3.88;49.54;102164.41;1745776;79;21354;-60
2022/12/01 13:11:57;;;;;;;7.42;2.58;;;;;;;3.82;49.42;102174.25;1770652;79;21194;-61
2022/12/01 13:19:48;;;;;;;6.60;2.62;;;;;;;3.56;49.15;102169.45;1716565;81;21199;-62
2022/12/01 13:23:04;;;;;;;8.38;3.50;;;;;;;3.48;49.18;102178.02;1729543;80;21254;-61
2022/12/01 13:26:35;;;;;;;8.80;3.72;;;;;;;3.49;49.22;102174.84;1710825;81;21904;-59
2022/12/01 13:30:01;;;;;;;8.53;3.40;;;;;;;3.46;49.18;102174.52;1742264;80;21419;-59
2022/12/01 13:33:49;;;;;;;14.45;7.17;;;;;;;3.46;49.07;102173.63;1881173;74;20663;-60
2022/12/01 13:40:46;;;;;;;9.83;3.80;;;;;;;3.32;49.03;102177.13;1745273;77;21245;-59
2022/12/01 13:44:37;;;;;;;7.15;3.25;;;;;;;3.29;48.97;102177.78;1634284;85;21668;-59
2022/12/01 13:48:40;;;;;;;10.75;3.27;;;;;;;3.26;48.97;102172.55;1611504;88;21262;-57
2022/12/01 13:52:58;;;;;;;9.10;3.50;;;;;;;3.23;48.93;102170.01;1627139;85;21226;-58
2022/12/01 13:56:46;;;;;;;6.75;3.40;;;;;;;3.17;48.83;102169.89;1732315;82;21215;-57
2022/12/01 14:18:35;;;;;;;6.92;3.98;;;;;;;2.77;48.55;102164.91;1797317;77;22311;31
2022/12/01 14:21:53;;;;;;;9.58;4.15;;;;;;;2.69;48.54;102171.20;1654202;84;22005;-59
2022/12/01 14:25:38;;;;;;;8.43;4.45;;;;;;;2.66;48.54;102165.96;1669837;83;21738;-61
2022/12/01 14:47:35;;;;;;;9.13;4.40;;;;;;;2.44;48.27;102168.06;1744675;79;21535;-59
2022/12/01 14:51:47;;;;;;;7.85;3.95;;;;;;;2.41;48.24;102164.17;1715899;81;21523;-59
2022/12/01 14:55:27;;;;;;;9.60;3.75;;;;;;;2.40;48.18;102163.75;1688474;80;21323;-58
2022/12/01 15:03:35;;;;;;;8.93;3.52;;;;;;;2.35;48.13;102168.52;1720322;81;21600;-59
2022/12/01 15:28:40;;;;;;;9.98;4.42;;;;;;;2.28;47.96;102152.25;1797548;78;22315;-57
2022/12/01 15:32:15;;;;;;;12.30;4.03;;;;;;;2.22;47.87;102156.13;1731898;80;21299;-59
2022/12/01 15:35:47;;;;;;;9.15;3.67;;;;;;;2.20;47.85;102158.06;1660298;85;21253;-59
2022/12/01 15:57:07;;;;;;;14.07;3.65;;;;;;;2.30;47.60;102155.25;1798650;79;22329;-58
2022/12/01 16:01:01;;;;;;;8.48;3.42;;;;;;;2.30;47.59;102143.59;1876758;76;22191;-59
2022/12/01 16:04:48;;;;;;;8.18;3.85;;;;;;;2.29;47.47;102151.28;1834799;76;22316;-57
2022/12/01 16:08:33;;;;;;;12.30;4.00;;;;;;;2.24;47.47;102149.30;1772020;80;21288;-57
2022/12/01 16:12:08;;;;;;;8.60;3.40;;;;;;;2.23;47.40;102150.26;1762331;80;21177;-59
2022/12/01 16:15:31;;;;;;;6.35;3.85;;;;;;;2.22;47.33;102143.97;1739671;80;21252;-60
2022/12/01 16:23:30;;;;;;;7.75;3.60;;;;;;;2.18;47.26;102152.32;1741918;81;21196;-57
2022/12/01 16:26:58;;;;;;;9.68;3.83;;;;;;;2.20;47.27;102158.06;1734055;81;21196;-59
2022/12/01 16:30:15;;;;;;;10.28;3.35;;;;;;;2.18;47.10;102153.67;1741122;81;21212;-59
2022/12/01 16:48:36;;;;;;;12.33;3.67;;;;;;;2.17;46.94;102147.88;1867396;76;22348;-57
2022/12/01 16:52:08;;;;;;;7.62;3.37;;;;;;;2.09;46.93;102150.98;1804866;79;21498;-56
2022/12/01 16:56:03;;;;;;;7.20;3.22;;;;;;;2.17;46.95;102146.53;1885260;74;22215;-60
2022/12/01 17:06:37;;;;;;;11.20;3.33;;;;;;;2.16;46.80;102147.00;1727698;82;21212;-58
2022/12/01 17:10:09;;;;;;;5.80;3.00;;;;;;;2.13;46.68;102139.52;1784792;79;21425;-59
2022/12/01 17:13:53;;;;;;;7.45;3.30;;;;;;;2.11;46.66;102142.80;1769326;80;21228;-59
2022/12/01 17:17:08;;;;;;;9.53;2.87;;;;;;;2.06;46.56;102142.16;1765912;80;21275;-59
2022/12/01 17:24:16;;;;;;;11.30;5.37;;;;;;;2.02;46.50;102145.95;1754221;80;22034;-59
2022/12/01 17:28:00;;;;;;;9.03;4.15;;;;;;;1.99;46.43;102143.41;1761246;80;21151;-59
2022/12/01 17:31:43;;;;;;;9.88;3.67;;;;;;;1.95;46.42;102139.14;1779108;79;21181;-58
2022/12/01 17:35:42;;;;;;;8.58;3.10;;;;;;;1.95;46.43;102136.44;1787203;79;21685;-58
2022/12/01 17:39:18;;;;;;;8.38;3.12;;;;;;;1.98;46.45;102140.33;1754518;79;21214;-57
2022/12/01 17:42:43;;;;;;;20.88;10.10;;;;;;;1.98;46.43;102130.41;1732792;82;22065;-58
2022/12/01 17:46:28;;;;;;;7.15;4.10;;;;;;;2.02;46.39;102141.91;1706695;82;21760;-57
2022/12/01 17:49:42;;;;;;;9.18;3.87;;;;;;;2.01;46.34;102132.06;1733501;82;21259;-58
2022/12/01 17:53:09;;;;;;;14.38;5.75;;;;;;;2.02;46.30;102140.55;1739178;82;21347;-58
2022/12/01 17:57:06;;;;;;;11.70;5.50;;;;;;;2.00;46.23;102138.44;1734156;82;21192;-57
2022/12/01 18:01:02;;;;;;;10.55;3.80;;;;;;;1.98;46.24;102135.81;1706000;82;21212;-59
2022/12/01 18:04:58;;;;;;;9.93;3.72;;;;;;;2.01;46.26;102137.00;1716702;82;21265;-57
2022/12/01 18:08:45;;;;;;;5.92;3.00;;;;;;;1.99;46.16;102133.96;1726611;82;21255;-57
2022/12/01 18:12:19;;;;;;;6.83;3.22;;;;;;;2.03;46.10;102134.22;1910120;74;22258;-58
2022/12/01 18:15:50;;;;;;;11.08;3.10;;;;;;;1.98;46.11;102144.38;1767545;81;21225;-57
2022/12/01 18:20:05;;;;;;;6.22;2.92;;;;;;;1.98;46.06;102131.77;1775894;80;21864;-57
2022/12/01 18:28:10;;;;;;;11.22;6.65;;;;;;;1.82;45.78;102136.19;1800216;77;21391;-58
2022/12/01 18:31:34;;;;;;;8.05;3.47;;;;;;;1.86;45.90;102132.36;1857523;76;22227;-58
2022/12/01 18:35:24;;;;;;;9.08;4.78;;;;;;;1.81;45.95;102127.67;1705983;82;22199;-60
2022/12/01 18:43:53;;;;;;;6.75;2.85;;;;;;;1.83;45.86;102137.05;1714251;80;21287;-58
2022/12/01 18:47:24;;;;;;;8.33;3.23;;;;;;;1.86;45.84;102145.87;1858497;76;28078;-59
2022/12/01 18:50:43;;;;;;;6.62;2.77;;;;;;;1.89;45.75;102143.51;1795365;79;21338;-57
2022/12/01 18:54:07;;;;;;;15.43;7.75;;;;;;;1.97;45.64;102143.95;1820692;76;22804;-56
2022/12/01 19:01:13;;;;;;;9.33;3.72;;;;;;;1.95;45.66;102141.34;1874268;76;22265;-57
2022/12/01 19:04:35;;;;;;;5.90;2.50;;;;;;;1.90;45.65;102145.24;1831530;76;21195;-56
2022/12/01 19:08:46;;;;;;;5.75;2.92;;;;;;;1.91;45.61;102148.33;1844738;76;21166;-59
2022/12/01 19:12:31;;;;;;;3.30;2.27;;;;;;;1.88;45.61;102149.38;1853629;76;21192;-59
2022/12/01 19:19:43;;;;;;;6.12;3.05;;;;;;;1.88;45.59;102144.44;1771756;79;21225;-59
2022/12/01 19:23:13;;;;;;;4.60;2.50;;;;;;;1.85;45.49;102144.59;1763425;79;21672;-57
2022/12/01 19:26:42;;;;;;;5.37;2.90;;;;;;;1.82;45.52;102140.70;1761818;81;21323;-57
2022/12/01 19:30:05;;;;;;;5.60;2.15;;;;;;;1.81;45.52;102150.62;1744162;80;21261;-59
2022/12/01 19:33:25;;;;;;;5.05;2.75;;;;;;;1.76;45.45;102144.57;1771210;79;21773;-59
2022/12/01 19:36:41;;;;;;;5.37;2.92;;;;;;;1.72;45.41;102151.55;1789068;79;21301;-59
2022/12/01 19:40:23;;;;;;;6.83;2.45;;;;;;;1.67;45.41;102150.91;1771456;80;21782;-57
2022/12/01 19:59:15;;;;;;;5.87;3.35;;;;;;;1.55;45.31;102145.66;1826682;76;23241;-59
2022/12/01 20:02:25;;;;;;;7.50;2.73;;;;;;;1.39;45.25;102151.41;1756705;80;21180;-60
2022/12/01 20:09:51;;;;;;;4.53;2.67;;;;;;;1.35;45.38;102149.33;1853043;76;22365;-60
2022/12/01 20:16:43;;;;;;;4.35;2.15;;;;;;;1.32;45.43;102160.73;1791216;79;21148;-59
2022/12/01 20:20:13;;;;;;;4.80;2.50;;;;;;;1.32;45.41;102156.69;1804540;78;21359;-59
2022/12/01 20:23:48;;;;;;;9.05;5.28;;;;;;;1.33;45.33;102155.26;1924705;72;22260;-59
2022/12/01 20:37:39;;;;;;;7.08;3.30;;;;;;;1.23;45.42;102164.77;1772275;80;22833;-57
2022/12/01 20:41:20;;;;;;;6.40;3.58;;;;;;;1.17;45.44;102166.38;1701454;83;21737;-57
2022/12/01 20:45:19;;;;;;;7.53;2.92;;;;;;;1.15;45.42;102164.25;1718682;83;21422;-59
2022/12/01 20:49:36;;;;;;;7.03;2.70;;;;;;;1.14;45.37;102175.97;1710560;82;21256;-57
2022/12/01 20:53:15;;;;;;;6.78;2.67;;;;;;;1.15;45.36;102172.34;1850152;75;22257;-58
2022/12/01 20:56:46;;;;;;;10.28;2.60;;;;;;;1.08;45.38;102170.87;1796842;77;21173;-59
2022/12/01 21:00:22;;;;;;;8.75;2.98;;;;;;;1.11;45.42;102175.27;1776659;79;22050;-57
2022/12/01 21:04:20;;;;;;;9.48;4.72;;;;;;;1.15;45.47;102179.09;1795670;76;21208;-57
2022/12/01 21:07:57;;;;;;;6.50;3.25;;;;;;;1.20;45.46;102172.13;1815987;74;22179;-59
2022/12/01 21:19:43;;;;;;;11.15;5.22;;;;;;;1.21;45.39;102173.86;1680219;83;21233;-59
2022/12/01 21:23:12;;;;;;;10.70;3.67;;;;;;;1.20;45.40;102168.96;1676201;84;21331;-59
2022/12/01 21:26:55;;;;;;;6.83;3.47;;;;;;;1.23;45.37;102162.06;1885500;75;22191;-58
2022/12/01 21:30:17;;;;;;;7.90;3.47;;;;;;;1.18;45.40;102168.61;1742614;79;22078;-59
2022/12/01 21:34:34;;;;;;;6.55;3.20;;;;;;;1.16;45.42;102164.64;1715606;82;22261;-58
2022/12/01 21:38:29;;;;;;;7.85;3.20;;;;;;;1.16;45.40;102165.99;1710185;81;21195;-57
2022/12/01 21:41:37;;;;;;;5.37;2.60;;;;;;;1.09;45.28;102176.69;1690234;83;21168;-60
2022/12/01 21:45:32;;;;;;;12.25;3.20;;;;;;;1.06;45.36;102172.75;1700560;81;21360;-58
2022/12/01 21:49:18;;;;;;;8.33;3.17;;;;;;;1.02;45.29;102171.63;1757646;81;21336;-56
2022/12/01 21:52:56;;;;;;;5.10;2.87;;;;;;;1.07;45.36;102173.64;1870769;76;22183;-58
2022/12/01 21:57:09;;;;;;;6.75;3.05;;;;;;;1.00;45.35;102174.89;1803116;79;21175;-57
2022/12/01 22:01:22;;;;;;;7.55;3.30;;;;;;;1.00;45.35;102171.70;1800933;78;21161;-57
2022/12/01 22:05:20;;;;;;;7.37;2.90;;;;;;;0.94;45.33;102165.25;1741203;81;21390;-58
2022/12/01 22:08:37;;;;;;;7.72;2.95;;;;;;;0.97;45.41;102175.00;1729125;82;21219;-59
2022/12/01 22:12:42;;;;;;;8.28;3.52;;;;;;;0.99;45.45;102171.31;1771366;80;21180;-58
2022/12/01 22:16:30;;;;;;;6.22;2.98;;;;;;;1.00;45.42;102162.27;1778895;79;21236;-59
2022/12/01 22:20:24;;;;;;;5.20;2.80;;;;;;;0.99;45.41;102157.83;1780248;79;21231;-58
2022/12/01 22:26:59;;;;;;;6.08;3.45;;;;;;;0.95;45.36;102153.51;1760435;80;21216;-59
2022/12/01 22:30:55;;;;;;;13.75;3.55;;;;;;;0.93;45.35;102154.55;1763215;80;21184;-60
2022/12/01 22:45:33;;;;;;;8.05;3.42;;;;;;;0.95;45.45;102156.70;1686996;80;21282;-59
2022/12/01 22:49:19;;;;;;;5.25;2.77;;;;;;;0.93;45.44;102154.55;1729910;82;21765;-56
2022/12/01 22:53:03;;;;;;;8.83;3.72;;;;;;;0.94;45.46;102148.19;1698416;83;21243;-58
2022/12/01 22:56:04;;;;;;;8.48;3.20;;;;;;;0.95;45.45;102152.16;1697905;84;21188;-58
2022/12/01 22:59:46;;;;;;;6.47;3.27;;;;;;;0.87;45.33;102146.75;1695823;84;21757;-60
2022/12/01 23:24:39;;;;;;;6.00;3.15;;;;;;;0.90;45.58;102142.55;1806982;79;22826;-56
2022/12/01 23:27:58;;;;;;;5.12;2.95;;;;;;;0.84;45.58;102146.89;1684492;81;21154;-59
2022/12/01 23:34:59;;;;;;;9.25;3.05;;;;;;;0.89;45.64;102144.83;1761060;81;21344;-56
2022/12/01 23:38:43;;;;;;;7.08;3.55;;;;;;;0.92;45.66;102150.96;1740223;81;21733;-59
2022/12/01 23:42:28;;;;;;;8.75;4.62;;;;;;;0.96;45.64;102151.23;1835801;75;22652;-56
2022/12/01 23:45:49;;;;;;;7.42;3.22;;;;;;;0.96;45.65;102148.55;1877734;76;22210;-57
2022/12/01 23:49:33;;;;;;;5.83;2.83;;;;;;;0.94;45.66;102151.77;1770129;81;21390;-57
2022/12/01 23:53:17;;;;;;;7.17;3.58;;;;;;;0.91;45.56;102149.22;1807112;79;21289;-59
2022/12/01 23:56:52;;;;;;;9.08;3.85;;;;;;;0.87;45.55;102152.14;1806540;79;21184;-57
